createdAt,value
2019-02-26T00:01:00.128Z,103258.18
2019-02-26T00:03:31.445Z,103251.97
2019-02-26T00:06:07.836Z,103249.34
2019-02-26T00:08:43.146Z,103252.91
2019-02-26T00:11:13.328Z,103251.61
2019-02-26T00:13:43.525Z,103248.48
2019-02-26T00:16:15.795Z,103251.20
2019-02-26T00:18:48.840Z,103252.05
2019-02-26T00:21:20.411Z,103259.61
2019-02-26T00:23:53.061Z,103253.37
2019-02-26T00:26:22.811Z,103252.94
2019-02-26T00:32:23.528Z,103248.02
2019-02-26T00:34:55.713Z,103238.16
2019-02-26T00:37:26.374Z,103248.50
2019-02-26T00:39:57.085Z,103243.56
2019-02-26T00:42:28.836Z,103252.53
2019-02-26T00:45:01.034Z,103261.43
2019-02-26T00:47:34.063Z,103270.83
2019-02-26T00:50:07.318Z,103261.45
2019-02-26T00:52:39.210Z,103265.91
2019-02-26T00:55:09.698Z,103267.68
2019-02-26T00:58:00.718Z,103265.86
2019-02-26T01:00:30.861Z,103264.52
2019-02-26T01:03:03.481Z,103265.05
2019-02-26T01:05:40.755Z,103258.80
2019-02-26T01:08:12.849Z,103261.92
2019-02-26T01:10:43.672Z,103267.25
2019-02-26T01:13:24.842Z,103266.41
2019-02-26T01:16:13.371Z,103265.52
2019-02-26T01:18:44.378Z,103264.66
2019-02-26T01:21:15.483Z,103266.42
2019-02-26T01:23:45.669Z,103265.08
2019-02-26T01:26:15.882Z,103261.05
2019-02-26T01:28:48.313Z,103261.09
2019-02-26T01:31:19.820Z,103256.63
2019-02-26T01:33:50.901Z,103254.87
2019-02-26T01:36:23.719Z,103250.45
2019-02-26T01:38:53.667Z,103245.54
2019-02-26T01:41:33.804Z,103245.09
2019-02-26T01:44:03.987Z,103240.64
2019-02-26T01:46:36.596Z,103239.31
2019-02-26T01:49:07.021Z,103234.42
2019-02-26T01:51:37.206Z,103227.29
2019-02-26T01:54:10.350Z,103211.23
2019-02-26T01:57:09.136Z,103204.98
2019-02-26T01:59:38.837Z,103202.31
2019-02-26T02:02:12.166Z,103197.84
2019-02-26T02:04:41.613Z,103190.27
2019-02-26T02:07:13.862Z,103194.72
2019-02-26T02:09:46.554Z,103188.50
2019-02-26T02:12:15.933Z,103193.41
2019-02-26T02:14:46.104Z,103201.87
2019-02-26T02:17:17.212Z,103206.33
2019-02-26T02:20:08.412Z,103196.95
2019-02-26T02:22:40.383Z,103196.48
2019-02-26T02:25:31.413Z,103203.19
2019-02-26T02:28:02.701Z,103211.66
2019-02-26T02:30:38.866Z,103198.27
2019-02-26T02:33:17.286Z,103209.89
2019-02-26T02:36:09.729Z,103200.09
2019-02-26T02:38:40.889Z,103195.19
2019-02-26T02:41:11.073Z,103202.76
2019-02-26T02:43:41.274Z,103196.50
2019-02-26T02:46:15.549Z,103188.94
2019-02-26T02:48:45.744Z,103184.93
2019-02-26T02:51:15.954Z,103176.45
2019-02-26T02:53:47.822Z,103168.41
2019-02-26T02:56:18.917Z,103173.33
2019-02-26T02:58:51.526Z,103168.84
2019-02-26T03:01:22.989Z,103178.66
2019-02-26T03:03:53.850Z,103177.77
2019-02-26T03:06:27.243Z,103172.38
2019-02-26T03:08:56.626Z,103177.31
2019-02-26T03:11:26.838Z,103175.53
2019-02-26T03:13:57.048Z,103176.86
2019-02-26T03:16:27.263Z,103172.39
2019-02-26T03:18:57.471Z,103171.97
2019-02-26T03:21:28.643Z,103169.27
2019-02-26T03:24:00.876Z,103163.50
2019-02-26T03:26:31.453Z,103158.56
2019-02-26T03:29:01.652Z,103154.53
2019-02-26T03:31:34.917Z,103152.77
2019-02-26T03:34:08.681Z,103163.02
2019-02-26T03:36:38.255Z,103166.56
2019-02-26T03:39:07.574Z,103160.34
2019-02-26T03:42:14.177Z,103169.70
2019-02-26T03:44:46.931Z,103172.41
2019-02-26T03:47:18.634Z,103173.73
2019-02-26T03:49:48.294Z,103172.41
2019-02-26T03:52:18.472Z,103172.41
2019-02-26T03:54:50.735Z,103168.39
2019-02-26T03:57:22.707Z,103169.73
2019-02-26T04:00:20.066Z,103171.52
2019-02-26T04:02:51.556Z,103167.96
2019-02-26T04:05:21.582Z,103167.06
2019-02-26T04:07:53.275Z,103165.25
2019-02-26T04:10:23.669Z,103165.70
2019-02-26T04:12:55.360Z,103161.70
2019-02-26T04:15:27.887Z,103164.81
2019-02-26T04:18:15.982Z,103164.82
2019-02-26T04:20:46.254Z,103169.73
2019-02-26T04:23:19.916Z,103172.84
2019-02-26T04:25:54.174Z,103180.91
2019-02-26T04:28:33.048Z,103178.69
2019-02-26T04:31:26.753Z,103181.78
2019-02-26T04:34:15.399Z,103181.34
2019-02-26T04:37:04.785Z,103192.52
2019-02-26T04:39:47.602Z,103198.31
2019-02-26T04:42:48.310Z,103192.95
2019-02-26T04:45:31.768Z,103186.25
2019-02-26T04:48:17.169Z,103182.69
2019-02-26T04:50:45.888Z,103187.61
2019-02-26T04:53:16.092Z,103187.14
2019-02-26T04:55:46.281Z,103184.02
2019-02-26T04:58:18.350Z,103189.39
2019-02-26T05:00:58.275Z,103190.27
2019-02-26T05:03:34.528Z,103199.20
2019-02-26T05:06:15.329Z,103201.43
2019-02-26T05:09:00.138Z,103198.73
2019-02-26T05:11:43.643Z,103202.78
2019-02-26T05:14:23.531Z,103198.30
2019-02-26T05:17:03.777Z,103201.88
2019-02-26T05:19:36.261Z,103199.17
2019-02-26T05:22:10.093Z,103197.41
2019-02-26T05:24:42.393Z,103196.52
2019-02-26T05:27:19.700Z,103194.28
2019-02-26T05:29:52.430Z,103203.66
2019-02-26T05:32:29.413Z,103213.92
2019-02-26T05:34:58.622Z,103207.66
2019-02-26T05:37:37.382Z,103214.81
2019-02-26T05:40:12.165Z,103208.55
2019-02-26T05:42:39.489Z,103214.36
2019-02-26T05:45:09.756Z,103213.45
2019-02-26T05:47:39.953Z,103219.27
2019-02-26T05:50:16.320Z,103217.06
2019-02-26T05:52:58.948Z,103220.59
2019-02-26T05:55:41.635Z,103218.37
2019-02-26T05:58:15.161Z,103222.84
2019-02-26T06:00:42.796Z,103225.08
2019-02-26T06:03:16.338Z,103222.84
2019-02-26T06:05:48.879Z,103223.31
2019-02-26T06:08:18.703Z,103222.85
2019-02-26T06:10:55.143Z,103225.06
2019-02-26T06:13:25.337Z,103228.62
2019-02-26T06:15:58.603Z,103220.61
2019-02-26T06:18:27.430Z,103228.16
2019-02-26T06:20:58.606Z,103222.80
2019-02-26T06:23:31.747Z,103225.50
2019-02-26T06:26:04.903Z,103228.59
2019-02-26T06:28:38.044Z,103234.88
2019-02-26T06:31:25.121Z,103229.52
2019-02-26T06:33:55.318Z,103229.05
2019-02-26T06:36:26.422Z,103233.53
2019-02-26T06:38:58.893Z,103231.75
2019-02-26T06:41:29.298Z,103228.17
2019-02-26T06:44:33.939Z,103226.84
2019-02-26T06:47:04.795Z,103226.41
2019-02-26T06:49:36.024Z,103223.73
2019-02-26T06:52:08.432Z,103226.86
2019-02-26T06:54:57.257Z,103222.38
2019-02-26T06:57:25.708Z,103226.87
2019-02-26T07:00:38.063Z,103219.29
2019-02-26T07:03:16.230Z,103222.84
2019-02-26T07:05:51.483Z,103219.72
2019-02-26T07:08:23.665Z,103218.83
2019-02-26T07:10:54.514Z,103221.51
2019-02-26T07:13:24.688Z,103217.48
2019-02-26T07:15:54.897Z,103226.87
2019-02-26T07:18:42.203Z,103222.86
2019-02-26T07:21:13.491Z,103227.77
2019-02-26T07:23:56.430Z,103226.84
2019-02-26T07:26:27.661Z,103217.42
2019-02-26T07:28:58.770Z,103221.36
2019-02-26T07:31:30.857Z,103215.85
2019-02-26T07:34:26.858Z,103208.64
2019-02-26T07:36:56.938Z,103209.06
2019-02-26T07:39:59.828Z,103201.92
2019-02-26T07:42:37.288Z,103210.25
2019-02-26T07:45:15.290Z,103210.72
2019-02-26T07:47:45.389Z,103216.51
2019-02-26T07:50:17.354Z,103213.56
2019-02-26T07:52:49.723Z,103221.28
2019-02-26T07:55:27.367Z,103226.96
2019-02-26T07:57:57.077Z,103215.08
2019-02-26T08:00:27.644Z,103216.96
2019-02-26T08:03:00.165Z,103215.83
2019-02-26T08:05:30.731Z,103219.05
2019-02-26T08:08:02.866Z,103220.77
2019-02-26T08:10:42.809Z,103219.68
2019-02-26T08:13:12.844Z,103213.70
2019-02-26T08:15:45.112Z,103220.27
2019-02-26T08:18:22.239Z,103215.08
2019-02-26T08:20:54.644Z,103210.69
2019-02-26T08:23:26.394Z,103204.12
2019-02-26T08:26:10.064Z,103208.52
2019-02-26T08:28:41.956Z,103202.27
2019-02-26T08:31:17.520Z,103198.50
2019-02-26T08:33:48.623Z,103198.00
2019-02-26T08:36:18.423Z,103200.88
2019-02-26T08:38:49.535Z,103200.36
2019-02-26T08:41:19.737Z,103204.86
2019-02-26T08:43:51.606Z,103203.36
2019-02-26T08:46:44.396Z,103201.76
2019-02-26T08:49:20.828Z,103203.54
2019-02-26T08:51:51.238Z,103200.53
2019-02-26T08:54:23.764Z,103205.05
2019-02-26T08:56:53.369Z,103199.00
2019-02-26T08:59:23.570Z,103198.00
2019-02-26T09:01:53.784Z,103196.95
2019-02-26T09:04:24.011Z,103197.16
2019-02-26T09:06:54.689Z,103199.33
2019-02-26T09:09:35.210Z,103195.43
2019-02-26T09:12:07.413Z,103196.89
2019-02-26T09:14:40.872Z,103196.67
2019-02-26T09:17:20.892Z,103197.74
2019-02-26T09:19:50.867Z,103206.22
2019-02-26T09:22:23.388Z,103209.52
2019-02-26T09:25:07.243Z,103210.08
2019-02-26T09:27:42.719Z,103214.53
2019-02-26T09:30:20.649Z,103214.97
2019-02-26T09:32:54.149Z,103212.12
2019-02-26T09:35:35.264Z,103208.98
2019-02-26T09:38:05.477Z,103212.61
2019-02-26T09:40:35.732Z,103207.70
2019-02-26T09:43:06.321Z,103209.41
2019-02-26T09:46:01.800Z,103213.98
2019-02-26T09:48:33.621Z,103211.83
2019-02-26T09:51:04.895Z,103207.46
2019-02-26T09:53:35.930Z,103203.47
2019-02-26T09:56:14.100Z,103206.79
2019-02-26T09:58:46.493Z,103205.77
2019-02-26T10:01:24.393Z,103204.69
2019-02-26T10:03:56.069Z,103204.43
2019-02-26T10:06:42.046Z,103205.98
2019-02-26T10:09:18.728Z,103208.08
2019-02-26T10:12:05.037Z,103210.70
2019-02-26T10:14:38.968Z,103212.61
2019-02-26T10:17:11.475Z,103212.16
2019-02-26T10:19:42.937Z,103202.17
2019-02-26T10:22:13.782Z,103204.38
2019-02-26T10:24:44.019Z,103202.16
2019-02-26T10:27:16.296Z,103196.75
2019-02-26T10:29:49.930Z,103196.83
2019-02-26T10:32:39.012Z,103190.73
2019-02-26T10:35:15.858Z,103195.84
2019-02-26T10:38:03.600Z,103195.17
2019-02-26T10:40:53.500Z,103201.00
2019-02-26T10:43:14.196Z,103207.34
2019-02-26T10:45:47.580Z,103202.59
2019-02-26T10:48:27.970Z,103193.75
2019-02-26T10:50:59.324Z,103194.55
2019-02-26T10:53:31.407Z,103197.56
2019-02-26T10:56:01.603Z,103196.81
2019-02-26T10:58:31.776Z,103201.91
2019-02-26T11:01:05.224Z,103203.93
2019-02-26T11:03:55.250Z,103200.49
2019-02-26T11:06:27.429Z,103194.57
2019-02-26T11:09:01.766Z,103195.55
2019-02-26T11:11:35.090Z,103189.34
2019-02-26T11:14:13.595Z,103191.03
2019-02-26T11:16:48.609Z,103195.80
2019-02-26T11:19:20.784Z,103196.69
2019-02-26T11:22:05.315Z,103193.83
2019-02-26T11:24:42.181Z,103190.38
2019-02-26T11:27:12.383Z,103184.62
2019-02-26T11:29:43.564Z,103188.02
2019-02-26T11:32:21.737Z,103176.86
2019-02-26T11:34:57.605Z,103179.37
2019-02-26T11:37:35.199Z,103174.45
2019-02-26T11:40:08.702Z,103179.59
2019-02-26T11:42:39.993Z,103178.42
2019-02-26T11:45:19.258Z,103168.79
2019-02-26T11:47:49.268Z,103159.56
2019-02-26T11:50:28.014Z,103162.02
2019-02-26T11:52:57.957Z,103162.82
2019-02-26T11:55:37.431Z,103162.11
2019-02-26T11:58:09.981Z,103157.69
2019-02-26T12:00:50.582Z,103154.24
2019-02-26T12:03:37.126Z,103157.59
2019-02-26T12:06:07.145Z,103150.38
2019-02-26T12:08:43.102Z,103150.80
2019-02-26T12:11:20.340Z,103148.70
2019-02-26T12:14:00.424Z,103147.00
2019-02-26T12:16:30.614Z,103148.22
2019-02-26T12:19:01.801Z,103142.09
2019-02-26T12:22:06.050Z,103142.27
2019-02-26T12:24:37.305Z,103138.41
2019-02-26T12:27:14.616Z,103140.31
2019-02-26T12:29:45.411Z,103127.81
2019-02-26T12:32:16.994Z,103126.14
2019-02-26T12:34:48.444Z,103126.55
2019-02-26T12:37:25.472Z,103120.52
2019-02-26T12:40:23.331Z,103120.98
2019-02-26T12:42:52.393Z,103117.94
2019-02-26T12:45:41.333Z,103112.92
2019-02-26T12:48:15.620Z,103109.72
2019-02-26T12:50:52.124Z,103108.67
2019-02-26T12:53:54.661Z,103101.95
2019-02-26T12:56:28.091Z,103097.66
2019-02-26T12:59:13.130Z,103086.73
2019-02-26T13:01:46.328Z,103088.88
2019-02-26T13:04:19.585Z,103084.78
2019-02-26T13:07:00.521Z,103078.84
2019-02-26T13:09:33.820Z,103083.16
2019-02-26T13:12:04.935Z,103079.27
2019-02-26T13:14:35.151Z,103072.34
2019-02-26T13:17:13.989Z,103069.02
2019-02-26T13:19:54.703Z,103067.02
2019-02-26T13:22:22.424Z,103065.75
2019-02-26T13:24:52.626Z,103057.63
2019-02-26T13:27:22.876Z,103055.88
2019-02-26T13:29:57.527Z,103052.93
2019-02-26T13:32:32.237Z,103049.05
2019-02-26T13:35:04.257Z,103049.94
2019-02-26T13:37:36.614Z,103050.21
2019-02-26T13:40:15.804Z,103045.30
2019-02-26T13:42:49.903Z,103042.00
2019-02-26T13:45:26.299Z,103035.89
2019-02-26T13:48:01.113Z,103030.64
2019-02-26T13:50:29.810Z,103028.23
2019-02-26T13:53:00.911Z,103022.48
2019-02-26T13:55:37.467Z,103025.48
2019-02-26T13:58:11.801Z,103018.30
2019-02-26T14:01:09.920Z,103010.94
2019-02-26T14:03:44.136Z,103015.45
2019-02-26T14:06:14.478Z,103006.16
2019-02-26T14:08:45.594Z,103005.70
2019-02-26T14:11:16.719Z,103009.10
2019-02-26T14:13:48.901Z,103012.72
2019-02-26T14:16:32.650Z,103003.23
2019-02-26T14:19:12.636Z,103001.64
2019-02-26T14:21:42.839Z,102993.77
2019-02-26T14:24:19.263Z,102991.03
2019-02-26T14:26:53.714Z,102988.66
2019-02-26T14:29:33.815Z,102994.03
2019-02-26T14:32:04.021Z,102987.30
2019-02-26T14:34:34.213Z,102979.01
2019-02-26T14:37:05.350Z,102977.33
2019-02-26T14:39:41.462Z,102978.22
2019-02-26T14:42:11.660Z,102974.91
2019-02-26T14:44:41.860Z,102970.13
2019-02-26T14:47:12.077Z,102979.94
2019-02-26T14:49:43.241Z,102973.45
2019-02-26T14:52:14.364Z,102968.91
2019-02-26T14:54:56.700Z,102965.02
2019-02-26T14:57:26.916Z,102961.23
2019-02-26T15:00:08.233Z,102960.98
2019-02-26T15:02:40.954Z,102958.00
2019-02-26T15:05:21.279Z,102961.18
2019-02-26T15:07:51.435Z,102956.98
2019-02-26T15:10:27.740Z,102956.61
2019-02-26T15:12:58.776Z,102947.11
2019-02-26T15:15:42.315Z,102941.38
2019-02-26T15:18:12.611Z,102940.55
2019-02-26T15:20:46.584Z,102943.69
2019-02-26T15:23:24.273Z,102943.28
2019-02-26T15:25:54.453Z,102944.89
2019-02-26T15:28:24.654Z,102938.23
2019-02-26T15:30:55.018Z,102939.76
2019-02-26T15:33:39.181Z,102936.65
2019-02-26T15:36:09.664Z,102939.06
2019-02-26T15:38:45.660Z,102938.86
2019-02-26T15:41:15.946Z,102939.19
2019-02-26T15:43:49.192Z,102930.83
2019-02-26T15:46:24.043Z,102935.14
2019-02-26T15:48:54.259Z,102933.69
2019-02-26T15:51:31.000Z,102936.39
2019-02-26T15:54:01.206Z,102932.65
2019-02-26T15:56:36.683Z,102933.38
2019-02-26T15:59:07.922Z,102928.88
2019-02-26T16:01:38.219Z,102923.38
2019-02-26T16:04:09.393Z,102922.20
2019-02-26T16:06:39.584Z,102921.77
2019-02-26T16:09:20.166Z,102921.80
2019-02-26T16:12:04.098Z,102922.63
2019-02-26T16:14:38.614Z,102921.77
2019-02-26T16:17:13.097Z,102931.67
2019-02-26T16:19:45.299Z,102920.05
2019-02-26T16:25:51.694Z,102925.31
2019-02-26T16:28:27.275Z,102914.21
2019-02-26T16:30:57.271Z,102919.44
2019-02-26T16:33:27.460Z,102916.79
2019-02-26T16:36:31.677Z,102923.71
2019-02-26T16:39:14.941Z,102923.31
2019-02-26T16:41:57.216Z,102927.81
2019-02-26T16:44:27.456Z,102920.68
2019-02-26T16:47:05.242Z,102922.94
2019-02-26T16:49:42.228Z,102928.29
2019-02-26T16:52:52.919Z,102917.00
2019-02-26T16:55:25.060Z,102921.45
2019-02-26T16:57:56.164Z,102922.42
2019-02-26T17:00:27.506Z,102922.41
2019-02-26T17:03:31.717Z,102918.94
2019-02-26T17:06:06.289Z,102924.80
2019-02-26T17:08:53.530Z,102925.41
2019-02-26T17:11:35.557Z,102921.91
2019-02-26T17:14:07.723Z,102923.86
2019-02-26T17:16:37.920Z,102926.20
2019-02-26T17:19:08.163Z,102928.66
2019-02-26T17:21:40.414Z,102926.91
2019-02-26T17:24:21.299Z,102921.84
2019-02-26T17:26:59.005Z,102930.06
2019-02-26T17:29:31.287Z,102937.03
2019-02-26T17:32:04.031Z,102932.08
2019-02-26T17:34:33.426Z,102934.80
2019-02-26T17:37:11.559Z,102936.44
2019-02-26T17:39:41.750Z,102939.81
2019-02-26T17:42:27.372Z,102933.56
2019-02-26T17:44:57.571Z,102936.13
2019-02-26T17:47:27.782Z,102936.11
2019-02-26T17:50:17.841Z,102938.62
2019-02-26T17:52:48.042Z,102936.20
2019-02-26T17:55:18.257Z,102933.74
2019-02-26T17:57:48.458Z,102937.53
2019-02-26T18:00:22.169Z,102938.18
2019-02-26T18:03:07.252Z,102935.79
2019-02-26T18:05:39.372Z,102934.62
2019-02-26T18:08:09.036Z,102939.76
2019-02-26T18:10:39.217Z,102939.00
2019-02-26T18:13:09.424Z,102940.20
2019-02-26T18:15:40.722Z,102927.56
2019-02-26T18:18:15.382Z,102932.66
2019-02-26T18:20:45.574Z,102930.33
2019-02-26T18:23:15.780Z,102931.42
2019-02-26T18:25:45.974Z,102926.23
2019-02-26T18:28:22.563Z,102923.22
2019-02-26T18:30:52.766Z,102922.92
2019-02-26T18:33:25.088Z,102922.10
2019-02-26T18:35:56.160Z,102924.52
2019-02-26T18:38:39.171Z,102917.38
2019-02-26T18:41:09.424Z,102919.85
2019-02-26T18:43:47.524Z,102916.64
2019-02-26T18:46:33.362Z,102916.44
2019-02-26T18:49:25.900Z,102919.67
2019-02-26T18:51:56.088Z,102923.03
2019-02-26T18:54:26.296Z,102919.49
2019-02-26T18:57:26.960Z,102924.23
2019-02-26T18:59:57.257Z,102924.80
2019-02-26T19:02:27.510Z,102921.91
2019-02-26T19:05:03.532Z,102918.09
2019-02-26T19:07:35.359Z,102915.38
2019-02-26T19:10:20.759Z,102915.55
2019-02-26T19:12:49.872Z,102918.41
2019-02-26T19:15:25.407Z,102917.29
2019-02-26T19:17:57.031Z,102911.02
2019-02-26T19:20:35.720Z,102918.33
2019-02-26T19:23:05.936Z,102912.72
2019-02-26T19:25:36.136Z,102915.91
2019-02-26T19:28:09.942Z,102910.21
2019-02-26T19:30:40.231Z,102913.06
2019-02-26T19:33:18.738Z,102913.17
2019-02-26T19:35:48.766Z,102915.88
2019-02-26T19:38:18.956Z,102912.94
2019-02-26T19:40:55.113Z,102913.08
2019-02-26T19:43:41.913Z,102910.75
2019-02-26T19:46:12.110Z,102907.11
2019-02-26T19:48:42.379Z,102905.23
2019-02-26T19:51:12.575Z,102908.47
2019-02-26T19:53:42.772Z,102903.20
2019-02-26T19:56:23.604Z,102904.20
2019-02-26T19:58:54.501Z,102903.88
2019-02-26T20:01:26.635Z,102901.33
2019-02-26T20:03:56.839Z,102902.16
2019-02-26T20:06:52.191Z,102895.38
2019-02-26T20:09:41.662Z,102892.23
2019-02-26T20:12:18.385Z,102889.59
2019-02-26T20:15:13.331Z,102896.42
2019-02-26T20:17:43.891Z,102892.93
2019-02-26T20:20:21.174Z,102891.23
2019-02-26T20:22:51.333Z,102891.54
2019-02-26T20:25:21.684Z,102885.18
2019-02-26T20:27:54.630Z,102879.39
2019-02-26T20:30:24.916Z,102885.78
2019-02-26T20:32:55.264Z,102875.62
2019-02-26T20:35:25.447Z,102881.08
2019-02-26T20:38:08.683Z,102876.77
2019-02-26T20:41:22.012Z,102877.34
2019-02-26T20:43:51.749Z,102871.78
2019-02-26T20:46:25.224Z,102882.22
2019-02-26T20:49:30.888Z,102879.63
2019-02-26T20:52:05.900Z,102885.09
2019-02-26T20:54:36.258Z,102879.17
2019-02-26T20:57:15.920Z,102885.52
2019-02-26T20:59:46.118Z,102880.33
2019-02-26T21:02:17.449Z,102881.00
2019-02-26T21:04:49.599Z,102874.71
2019-02-26T21:07:24.561Z,102874.30
2019-02-26T21:10:16.220Z,102869.58
2019-02-26T21:12:51.422Z,102871.92
2019-02-26T21:15:22.339Z,102867.88
2019-02-26T21:19:42.734Z,102864.42
2019-02-26T21:22:13.425Z,102859.18
2019-02-26T21:24:47.831Z,102853.95
2019-02-26T21:27:18.688Z,102858.93
2019-02-26T21:29:49.450Z,102859.77
2019-02-26T21:32:22.846Z,102856.03
2019-02-26T21:34:54.162Z,102861.16
2019-02-26T21:37:24.886Z,102858.16
2019-02-26T21:40:08.128Z,102856.68
2019-02-26T21:42:38.896Z,102853.27
2019-02-26T21:45:15.356Z,102852.02
2019-02-26T21:47:52.782Z,102853.01
2019-02-26T21:50:23.782Z,102851.70
2019-02-26T21:53:01.709Z,102850.85
2019-02-26T21:55:32.678Z,102853.89
2019-02-26T21:58:03.348Z,102852.95
2019-02-26T22:00:39.803Z,102849.67
2019-02-26T22:03:29.204Z,102849.41
2019-02-26T22:06:05.772Z,102844.65
2019-02-26T22:08:49.294Z,102844.45
2019-02-26T22:11:20.185Z,102843.02
2019-02-26T22:13:50.927Z,102848.81
2019-02-26T22:16:22.007Z,102840.95
2019-02-26T22:18:52.653Z,102841.84
2019-02-26T22:21:29.056Z,102843.72
2019-02-26T22:24:07.007Z,102843.84
2019-02-26T22:26:38.202Z,102846.13
2019-02-26T22:29:08.867Z,102842.33
2019-02-26T22:31:39.975Z,102836.75
2019-02-26T22:34:10.830Z,102836.71
2019-02-26T22:36:41.422Z,102838.42
2019-02-26T22:39:15.241Z,102832.95
2019-02-26T22:41:46.145Z,102839.77
2019-02-26T22:44:18.705Z,102834.88
2019-02-26T22:50:08.455Z,102837.64
2019-02-26T22:52:39.327Z,102834.67
2019-02-26T22:55:10.346Z,102838.75
2019-02-26T22:57:41.011Z,102837.85
2019-02-26T23:00:48.265Z,102835.04
2019-02-26T23:03:18.391Z,102837.73
2019-02-26T23:05:58.745Z,102833.48
2019-02-26T23:08:27.741Z,102831.73
2019-02-26T23:11:02.154Z,102829.12
2019-02-26T23:13:33.189Z,102832.66
2019-02-26T23:16:05.146Z,102823.96
2019-02-26T23:18:36.275Z,102837.52
2019-02-26T23:21:07.285Z,102835.66
2019-02-26T23:23:44.123Z,102832.92
2019-02-26T23:26:15.238Z,102825.31
2019-02-26T23:28:54.494Z,102829.00
2019-02-26T23:31:24.803Z,102823.88
2019-02-26T23:33:56.128Z,102823.22
2019-02-26T23:36:28.536Z,102818.42
2019-02-26T23:38:59.087Z,102815.27
2019-02-26T23:41:30.798Z,102813.88
2019-02-26T23:44:02.132Z,102813.40
2019-02-26T23:46:32.751Z,102817.70
2019-02-26T23:49:03.565Z,102817.34
2019-02-26T23:51:34.255Z,102818.39
2019-02-26T23:54:10.606Z,102812.69
2019-02-26T23:56:41.302Z,102814.96
2019-02-26T23:59:23.105Z,102809.69
